Time;durP1;ratioP1;P1;durP2;ratioP2;P2;SDS_P1;SDS_P2;PMS_P1;PMS_P2;Temp;Humidity;BMP_temperature;BMP_pressure;BME280_temperature;BME280_humidity;BME280_pressure;Samples;Min_cycle;Max_cycle;Signal;HPM_P1;HPM_P2
2021/01/02 00:01:03;;;;;;;69.65;26.20;;;3.60;99.90;;;;;;5059036;28;20044;-61
2021/01/02 00:04:01;;;;;;;61.03;24.55;;;3.60;99.90;;;;;;5059442;28;20042;-58
2021/01/02 00:06:57;;;;;;;61.25;23.70;;;3.60;99.90;;;;;;5062529;28;20064;-61
2021/01/02 00:09:24;;;;;;;56.88;22.65;;;3.50;99.90;;;;;;5063145;28;20032;-61
2021/01/02 00:12:01;;;;;;;53.95;21.90;;;3.50;99.90;;;;;;5061598;28;20064;-61
2021/01/02 00:15:02;;;;;;;65.43;24.65;;;3.60;99.90;;;;;;5060477;28;20395;-61
2021/01/02 00:17:34;;;;;;;58.78;22.70;;;3.50;99.90;;;;;;5041250;28;20033;-61
2021/01/02 00:20:35;;;;;;;62.38;25.67;;;3.40;99.90;;;;;;5048598;28;20025;-60
2021/01/02 00:23:04;;;;;;;65.32;25.13;;;3.50;99.90;;;;;;5042498;28;20047;-58
2021/01/02 00:25:31;;;;;;;62.85;25.73;;;3.50;99.90;;;;;;5053016;28;20033;-58
2021/01/02 00:28:17;;;;;;;68.55;25.08;;;3.60;99.90;;;;;;5051661;28;20069;-61
2021/01/02 00:31:31;;;;;;;59.63;24.58;;;3.50;99.90;;;;;;5047871;28;20124;-59
2021/01/02 00:34:29;;;;;;;67.70;25.25;;;3.50;99.90;;;;;;5048236;28;20563;-61
2021/01/02 00:37:03;;;;;;;67.25;24.38;;;3.40;99.90;;;;;;5044747;28;20048;-61
2021/01/02 00:39:54;;;;;;;66.05;23.33;;;3.40;99.90;;;;;;5050226;28;20247;-61
2021/01/02 00:42:21;;;;;;;69.22;25.67;;;3.30;99.90;;;;;;5050790;28;20559;-61
2021/01/02 00:44:47;;;;;;;69.82;27.55;;;3.30;99.90;;;;;;5060713;28;20347;-58
2021/01/02 00:47:15;;;;;;;77.05;28.48;;;3.20;99.90;;;;;;5054926;28;20091;-58
2021/01/02 00:49:43;;;;;;;75.18;27.67;;;3.30;99.90;;;;;;5053145;28;20021;-61
2021/01/02 00:52:40;;;;;;;74.85;28.45;;;3.30;99.90;;;;;;5047427;28;20141;-61
2021/01/02 00:55:24;;;;;;;78.22;28.02;;;3.30;99.90;;;;;;5064144;28;20032;-61
2021/01/02 00:57:50;;;;;;;75.90;29.23;;;3.20;99.90;;;;;;5037311;28;20033;-61
2021/01/02 01:00:28;;;;;;;80.93;29.33;;;3.20;99.90;;;;;;5054703;28;20098;-61
2021/01/02 01:03:04;;;;;;;80.90;28.60;;;3.20;99.90;;;;;;5052657;28;20033;-61
2021/01/02 01:05:37;;;;;;;84.75;31.00;;;3.20;99.90;;;;;;5051847;28;20760;-61
2021/01/02 01:08:05;;;;;;;76.30;26.17;;;3.30;99.90;;;;;;5053028;28;20037;-61
2021/01/02 01:10:36;;;;;;;79.65;28.67;;;3.20;99.90;;;;;;5064765;28;20024;-61
2021/01/02 01:13:08;;;;;;;79.10;28.73;;;3.20;99.90;;;;;;5049134;28;20559;-61
2021/01/02 01:15:35;;;;;;;84.18;27.60;;;3.20;99.90;;;;;;5059849;28;20048;-61
2021/01/02 01:18:18;;;;;;;80.97;29.13;;;3.20;99.90;;;;;;5064735;28;20028;-61
2021/01/02 01:20:58;;;;;;;62.58;24.23;;;3.10;99.90;;;;;;5043661;28;20037;-61
2021/01/02 01:23:48;;;;;;;71.30;25.55;;;3.10;99.90;;;;;;5039745;28;20024;-61
2021/01/02 01:26:38;;;;;;;81.53;28.27;;;3.10;99.90;;;;;;5055046;28;20044;-61
2021/01/02 01:29:04;;;;;;;81.00;28.23;;;3.20;99.90;;;;;;5038147;28;20034;-61
2021/01/02 01:31:43;;;;;;;65.05;22.80;;;3.10;99.90;;;;;;5060703;28;20369;-61
2021/01/02 01:34:11;;;;;;;49.60;17.13;;;3.20;99.90;;;;;;5050859;28;20129;-61
2021/01/02 01:36:41;;;;;;;67.75;24.38;;;3.20;99.90;;;;;;5056803;28;20029;-61
2021/01/02 01:39:06;;;;;;;77.07;28.52;;;3.20;99.90;;;;;;5054379;28;20024;-61
2021/01/02 01:41:36;;;;;;;74.30;26.48;;;3.20;99.90;;;;;;5052893;28;20467;-61
2021/01/02 01:44:05;;;;;;;77.30;30.05;;;3.10;99.90;;;;;;5052396;28;20063;-61
2021/01/02 01:46:49;;;;;;;47.13;14.40;;;3.00;99.90;;;;;;5060448;28;20029;-61
2021/01/02 01:49:38;;;;;;;82.53;25.77;;;3.10;99.90;;;;;;5043314;28;20410;-61
2021/01/02 01:52:12;;;;;;;83.78;28.23;;;3.00;99.90;;;;;;5034446;28;20071;-61
2021/01/02 01:55:04;;;;;;;61.00;23.70;;;3.00;99.90;;;;;;5036727;28;20048;-61
2021/01/02 01:57:38;;;;;;;83.93;28.70;;;3.00;99.90;;;;;;5039074;28;20025;-61
2021/01/02 02:00:11;;;;;;;80.05;27.45;;;3.00;99.90;;;;;;5039286;28;20056;-61
2021/01/02 02:02:40;;;;;;;86.20;28.45;;;3.10;99.90;;;;;;5036615;28;20036;-58
2021/01/02 02:05:11;;;;;;;81.80;29.70;;;3.10;99.90;;;;;;5044410;28;20492;-59
2021/01/02 02:07:37;;;;;;;83.70;29.60;;;3.00;99.90;;;;;;5034561;28;20029;-61
2021/01/02 02:10:04;;;;;;;81.63;28.75;;;3.00;99.90;;;;;;5050392;28;20027;-58
2021/01/02 02:12:32;;;;;;;82.85;29.92;;;3.10;99.90;;;;;;5049259;28;20488;-61
2021/01/02 02:14:58;;;;;;;78.53;27.52;;;3.10;99.90;;;;;;5049736;28;20020;-61
2021/01/02 02:17:26;;;;;;;68.65;23.60;;;3.00;99.90;;;;;;5048875;28;20049;-61
2021/01/02 02:19:56;;;;;;;79.65;30.33;;;3.10;99.90;;;;;;5049415;28;20017;-61
2021/01/02 02:22:27;;;;;;;64.53;23.20;;;3.10;99.90;;;;;;5050471;28;20108;-59
2021/01/02 02:24:54;;;;;;;81.82;29.15;;;3.10;99.90;;;;;;5046897;28;20035;-61
2021/01/02 02:27:28;;;;;;;74.88;27.27;;;3.10;99.90;;;;;;5042542;28;20116;-59
2021/01/02 02:29:57;;;;;;;84.10;29.00;;;3.00;99.90;;;;;;5047730;28;20395;-59
2021/01/02 02:32:26;;;;;;;79.60;30.40;;;3.00;99.90;;;;;;5028589;28;20048;-59
2021/01/02 02:34:53;;;;;;;86.15;30.10;;;2.90;99.90;;;;;;5030702;28;20481;-58
2021/01/02 02:37:20;;;;;;;80.35;28.55;;;3.10;99.90;;;;;;5036148;28;20033;-59
2021/01/02 02:39:46;;;;;;;84.97;29.02;;;3.10;99.90;;;;;;5043295;28;20036;-59
2021/01/02 02:42:16;;;;;;;78.18;28.98;;;3.10;99.90;;;;;;5041762;28;20083;-59
2021/01/02 02:44:45;;;;;;;83.78;28.67;;;3.10;99.90;;;;;;5048371;28;20082;-59
2021/01/02 02:47:14;;;;;;;73.77;28.20;;;3.10;99.90;;;;;;5046066;28;20020;-59
2021/01/02 02:49:46;;;;;;;76.72;27.38;;;3.10;99.90;;;;;;5046977;28;20031;-59
2021/01/02 02:52:37;;;;;;;76.22;28.83;;;3.10;99.90;;;;;;5045208;28;20520;-61
2021/01/02 02:55:04;;;;;;;80.57;25.83;;;3.10;99.90;;;;;;5047041;28;20036;-61
2021/01/02 02:57:32;;;;;;;76.72;30.92;;;3.10;99.90;;;;;;5044112;28;20013;-61
2021/01/02 02:59:58;;;;;;;83.80;27.88;;;3.10;99.90;;;;;;5039370;28;20026;-61
2021/01/02 03:02:25;;;;;;;85.60;28.60;;;3.10;99.90;;;;;;5036441;28;20034;-61
2021/01/02 03:04:51;;;;;;;79.50;26.63;;;3.10;99.90;;;;;;5041566;28;20547;-58
2021/01/02 03:07:17;;;;;;;74.70;27.67;;;3.10;99.90;;;;;;5036948;28;20042;-61
2021/01/02 03:09:44;;;;;;;73.25;25.63;;;3.20;99.90;;;;;;5044007;28;20374;-61
2021/01/02 03:12:09;;;;;;;75.53;28.80;;;3.20;99.90;;;;;;5043188;28;20154;-61
2021/01/02 03:14:35;;;;;;;75.07;27.42;;;3.00;99.90;;;;;;5046429;28;20068;-61
2021/01/02 03:17:01;;;;;;;75.00;26.55;;;3.10;99.90;;;;;;5046898;28;20029;-61
2021/01/02 03:19:28;;;;;;;74.47;27.60;;;3.20;99.90;;;;;;5039162;28;20028;-62
2021/01/02 03:21:54;;;;;;;72.35;25.33;;;3.10;99.90;;;;;;5046685;28;20037;-61
2021/01/02 03:24:21;;;;;;;60.53;22.50;;;3.10;99.90;;;;;;5042012;28;20044;-61
2021/01/02 03:26:47;;;;;;;65.00;25.30;;;3.20;99.90;;;;;;5050170;28;20025;-61
2021/01/02 03:29:13;;;;;;;64.13;22.38;;;3.10;99.90;;;;;;5048270;28;20044;-61
2021/01/02 03:31:39;;;;;;;69.13;26.00;;;3.10;99.90;;;;;;5048748;28;20049;-61
2021/01/02 03:34:05;;;;;;;72.00;24.13;;;3.20;99.90;;;;;;5050485;28;20071;-61
2021/01/02 03:36:31;;;;;;;66.78;24.73;;;3.20;99.90;;;;;;5051067;28;20031;-61
2021/01/02 03:38:58;;;;;;;63.97;24.17;;;3.10;99.90;;;;;;5041861;28;20028;-61
2021/01/02 03:41:25;;;;;;;63.38;23.42;;;3.20;99.90;;;;;;5058440;28;20025;-61
2021/01/02 03:43:51;;;;;;;72.22;25.27;;;3.30;99.90;;;;;;5046733;28;20013;-61
2021/01/02 03:46:17;;;;;;;51.17;25.90;;;3.20;99.90;;;;;;5043978;28;20029;-61
2021/01/02 03:48:43;;;;;;;69.43;24.50;;;3.30;99.90;;;;;;5045082;28;20064;-61
2021/01/02 03:51:08;;;;;;;59.58;23.13;;;3.10;99.90;;;;;;5051050;28;20488;-60
2021/01/02 03:53:34;;;;;;;63.85;24.92;;;3.20;99.90;;;;;;5048245;28;20558;-60
2021/01/02 03:56:00;;;;;;;42.50;16.50;;;3.20;99.90;;;;;;5055450;28;20113;-60
2021/01/02 03:58:25;;;;;;;61.08;22.85;;;3.20;99.90;;;;;;5050617;28;20056;-61
2021/01/02 04:00:51;;;;;;;65.78;25.80;;;3.10;99.90;;;;;;5046196;28;20468;-60
2021/01/02 04:03:17;;;;;;;70.80;25.63;;;3.00;99.90;;;;;;5045858;28;20041;-59
2021/01/02 04:05:46;;;;;;;57.65;21.75;;;3.10;99.90;;;;;;5046113;28;20032;-62
2021/01/02 04:08:12;;;;;;;70.47;26.77;;;3.10;99.90;;;;;;5050456;28;20056;-61
2021/01/02 04:10:38;;;;;;;64.80;24.98;;;3.10;99.90;;;;;;5051374;28;20480;-61
2021/01/02 04:13:04;;;;;;;67.55;25.83;;;3.00;99.90;;;;;;5050087;28;20392;-61
2021/01/02 04:15:30;;;;;;;61.00;22.42;;;3.10;99.90;;;;;;5050257;28;20024;-60
2021/01/02 04:17:55;;;;;;;75.22;25.05;;;3.00;99.90;;;;;;5051839;28;20055;-60
2021/01/02 04:20:23;;;;;;;64.03;22.35;;;3.00;99.90;;;;;;5046244;28;20112;-61
2021/01/02 04:22:49;;;;;;;67.50;24.35;;;3.00;99.90;;;;;;5051418;28;20099;-59
2021/01/02 04:25:14;;;;;;;59.40;22.65;;;2.90;99.90;;;;;;5053459;28;20143;-61
2021/01/02 04:27:40;;;;;;;61.25;22.25;;;3.00;99.90;;;;;;5047394;28;20033;-60
2021/01/02 04:30:06;;;;;;;65.15;24.70;;;3.00;99.90;;;;;;5049271;28;20095;-61
2021/01/02 04:32:32;;;;;;;62.22;22.92;;;3.00;99.90;;;;;;5050542;28;20488;-61
2021/01/02 04:34:57;;;;;;;62.00;22.67;;;3.00;99.90;;;;;;5048445;28;20025;-59
2021/01/02 04:37:29;;;;;;;56.60;23.55;;;3.00;99.90;;;;;;5046510;28;20445;-61
2021/01/02 04:39:56;;;;;;;54.88;20.33;;;2.90;99.90;;;;;;5048625;28;20025;-60
2021/01/02 04:42:23;;;;;;;59.72;23.55;;;3.00;99.90;;;;;;5046004;28;20055;-62
2021/01/02 04:44:51;;;;;;;54.90;20.75;;;3.00;99.90;;;;;;5048348;28;20025;-62
2021/01/02 04:47:18;;;;;;;61.55;23.40;;;3.00;99.90;;;;;;5032495;28;20487;-59
2021/01/02 04:49:45;;;;;;;69.95;24.17;;;2.90;99.90;;;;;;5030002;28;20431;-61
2021/01/02 04:52:12;;;;;;;63.78;22.92;;;2.90;99.90;;;;;;5043652;28;20132;-61
2021/01/02 04:54:40;;;;;;;56.60;21.35;;;2.90;99.90;;;;;;5046537;28;20094;-61
2021/01/02 04:57:09;;;;;;;63.10;23.98;;;2.90;99.90;;;;;;5048444;28;20029;-61
2021/01/02 04:59:37;;;;;;;64.70;23.42;;;2.90;99.90;;;;;;5048610;28;20113;-61
2021/01/02 05:02:07;;;;;;;56.47;23.35;;;2.90;99.90;;;;;;5050820;28;20032;-61
2021/01/02 05:04:33;;;;;;;56.92;22.85;;;2.90;99.90;;;;;;5051910;28;20096;-61
2021/01/02 05:06:59;;;;;;;57.88;20.80;;;2.90;99.90;;;;;;5039489;28;20121;-61
2021/01/02 05:09:24;;;;;;;51.53;20.90;;;3.00;99.90;;;;;;5030598;28;20045;-61
2021/01/02 05:11:50;;;;;;;56.70;22.35;;;3.00;99.90;;;;;;5048623;28;20032;-61
2021/01/02 05:14:15;;;;;;;52.70;22.45;;;2.90;99.90;;;;;;5049097;28;20036;-61
2021/01/02 05:16:42;;;;;;;51.58;19.38;;;2.80;99.90;;;;;;5048530;28;20044;-61
2021/01/02 05:19:10;;;;;;;52.33;21.35;;;2.80;99.90;;;;;;5048776;28;20058;-61
2021/01/02 05:21:41;;;;;;;53.15;21.35;;;2.70;99.90;;;;;;5046688;28;20025;-61
2021/01/02 05:24:21;;;;;;;54.03;20.65;;;2.70;99.90;;;;;;5048506;28;20191;-59
2021/01/02 05:26:58;;;;;;;57.83;21.80;;;2.70;99.90;;;;;;5036039;28;20025;-61
2021/01/02 05:29:25;;;;;;;55.25;22.17;;;2.80;99.90;;;;;;5033162;28;20041;-61
2021/01/02 05:31:53;;;;;;;56.95;23.02;;;2.80;99.90;;;;;;5035554;28;20456;-59
2021/01/02 05:34:37;;;;;;;50.65;20.73;;;2.80;99.90;;;;;;5045301;28;20152;-59
2021/01/02 05:37:07;;;;;;;51.13;21.45;;;2.80;99.90;;;;;;5056525;28;20021;-59
2021/01/02 05:39:49;;;;;;;56.63;21.90;;;2.80;99.90;;;;;;5040197;28;20480;-59
2021/01/02 05:42:15;;;;;;;40.00;16.88;;;2.80;99.90;;;;;;5069270;28;20045;-59
2021/01/02 05:44:41;;;;;;;57.33;22.50;;;2.90;99.90;;;;;;5050324;28;20365;-59
2021/01/02 05:47:19;;;;;;;54.00;21.95;;;2.80;99.90;;;;;;5035171;28;20025;-59
2021/01/02 05:49:49;;;;;;;50.78;20.27;;;2.90;99.90;;;;;;5048364;28;20032;-59
2021/01/02 05:52:15;;;;;;;50.30;22.33;;;2.90;99.90;;;;;;5046839;28;20075;-59
2021/01/02 05:54:47;;;;;;;46.25;19.90;;;2.80;99.90;;;;;;5048336;28;20056;-58
2021/01/02 05:57:13;;;;;;;55.10;22.38;;;2.80;99.90;;;;;;5048606;28;20056;-58
2021/01/02 05:59:41;;;;;;;54.35;21.48;;;2.90;99.90;;;;;;5050003;28;20044;-61
2021/01/02 06:02:19;;;;;;;52.00;22.08;;;3.00;99.90;;;;;;5043108;28;20090;-58
2021/01/02 06:05:03;;;;;;;46.85;18.42;;;3.00;99.90;;;;;;5037291;28;20028;-60
2021/01/02 06:07:30;;;;;;;46.85;18.27;;;2.90;99.90;;;;;;5041343;28;20365;-60
2021/01/02 06:09:56;;;;;;;52.22;20.48;;;2.90;99.90;;;;;;5047838;28;20020;-60
2021/01/02 06:12:26;;;;;;;55.03;21.27;;;2.80;99.90;;;;;;5047971;28;20037;-60
2021/01/02 06:14:53;;;;;;;48.85;21.30;;;2.80;99.90;;;;;;5042746;28;20029;-60
2021/01/02 06:17:32;;;;;;;55.95;21.13;;;2.70;99.90;;;;;;5040695;28;20104;-60
2021/01/02 06:19:59;;;;;;;54.33;21.58;;;2.80;99.90;;;;;;5039920;28;20029;-60
2021/01/02 06:22:30;;;;;;;56.45;21.98;;;2.90;99.90;;;;;;5048116;28;20025;-60
2021/01/02 06:24:55;;;;;;;48.65;21.05;;;2.90;99.90;;;;;;5049058;28;20086;-60
2021/01/02 06:27:21;;;;;;;56.03;20.98;;;2.80;99.90;;;;;;5050691;28;20480;-60
2021/01/02 06:29:56;;;;;;;52.97;20.35;;;2.90;99.90;;;;;;5047577;28;20033;-60
2021/01/02 06:32:22;;;;;;;49.83;20.95;;;2.80;99.90;;;;;;5050082;28;20518;-60
2021/01/02 06:35:09;;;;;;;55.60;21.92;;;2.80;99.90;;;;;;5050472;28;20500;-60
2021/01/02 06:37:50;;;;;;;53.72;21.15;;;2.90;99.90;;;;;;5046883;28;20033;-60
2021/01/02 06:40:24;;;;;;;53.05;20.42;;;2.90;99.90;;;;;;5043309;28;20050;-58
2021/01/02 06:43:00;;;;;;;49.17;19.17;;;2.70;99.90;;;;;;5046412;28;20032;-58
2021/01/02 06:45:37;;;;;;;49.25;20.17;;;2.70;99.90;;;;;;5046572;28;20784;-60
2021/01/02 06:48:24;;;;;;;47.78;19.30;;;2.80;99.90;;;;;;5046407;28;20027;-61
2021/01/02 06:50:58;;;;;;;51.28;19.73;;;2.80;99.90;;;;;;5046780;28;20065;-60
2021/01/02 06:53:28;;;;;;;49.85;20.80;;;2.70;99.90;;;;;;5045435;28;20057;-60
2021/01/02 06:56:02;;;;;;;55.53;21.20;;;2.80;99.90;;;;;;5040139;28;20052;-60
2021/01/02 06:58:47;;;;;;;50.20;21.15;;;2.80;99.90;;;;;;5047775;28;20354;-60
2021/01/02 07:01:15;;;;;;;40.65;17.27;;;2.80;99.90;;;;;;5034062;28;20064;-60
2021/01/02 07:04:01;;;;;;;54.67;20.83;;;2.80;99.90;;;;;;5040533;28;20036;-60
2021/01/02 07:06:30;;;;;;;48.03;19.48;;;2.80;99.90;;;;;;5005594;28;20096;-60
2021/01/02 07:09:17;;;;;;;50.33;20.00;;;2.80;99.90;;;;;;5005775;28;20061;-57
2021/01/02 07:11:47;;;;;;;43.63;16.95;;;2.70;99.90;;;;;;4984599;28;20062;-60
2021/01/02 07:14:14;;;;;;;;;;;2.80;99.90;;;;;;5003660;28;20121;-60
2021/01/02 07:16:54;;;;;;;51.85;18.95;;;2.80;99.90;;;;;;5003623;28;19916;-60
2021/01/02 07:19:31;;;;;;;35.80;13.18;;;2.90;99.90;;;;;;5004790;28;20052;-60
2021/01/02 07:21:58;;;;;;;48.63;20.42;;;2.90;99.90;;;;;;5010353;28;20144;-60
2021/01/02 07:24:27;;;;;;;51.35;20.48;;;2.80;99.90;;;;;;5004962;28;20149;-60
2021/01/02 07:27:00;;;;;;;49.35;18.83;;;2.80;99.90;;;;;;4986583;28;20502;-60
2021/01/02 07:29:27;;;;;;;44.83;18.50;;;2.90;99.90;;;;;;5004671;28;20401;-61
2021/01/02 07:32:02;;;;;;;44.35;18.63;;;2.80;99.90;;;;;;5002086;28;20041;-59
2021/01/02 07:34:28;;;;;;;43.30;16.40;;;2.80;99.90;;;;;;5004303;28;20117;-61
2021/01/02 07:36:53;;;;;;;48.67;19.67;;;2.80;99.90;;;;;;5012751;28;20129;-61
2021/01/02 07:39:19;;;;;;;35.38;14.52;;;2.80;99.90;;;;;;5004026;28;20042;-59
2021/01/02 07:41:45;;;;;;;46.22;19.55;;;2.80;99.90;;;;;;5003320;28;20030;-59
2021/01/02 07:44:11;;;;;;;52.35;20.48;;;2.70;99.90;;;;;;5046837;28;20105;-59
2021/01/02 07:46:42;;;;;;;41.90;16.90;;;2.70;99.90;;;;;;5049746;28;20534;-59
2021/01/02 07:49:08;;;;;;;46.85;18.23;;;2.80;99.90;;;;;;5046938;28;20096;-60
2021/01/02 07:51:34;;;;;;;47.85;19.90;;;2.80;99.90;;;;;;5046905;28;20029;-61
2021/01/02 07:54:00;;;;;;;46.97;19.80;;;2.80;99.90;;;;;;5052448;28;20037;-59
2021/01/02 07:56:41;;;;;;;47.15;19.55;;;2.70;99.90;;;;;;5048152;28;20052;-59
2021/01/02 07:59:22;;;;;;;50.47;19.60;;;2.70;99.90;;;;;;5048978;28;20032;-59
2021/01/02 08:01:59;;;;;;;47.95;18.88;;;2.80;99.90;;;;;;5048178;28;20043;-61
2021/01/02 08:04:25;;;;;;;54.78;19.90;;;2.80;99.90;;;;;;5053879;28;20017;-61
2021/01/02 08:07:02;;;;;;;50.08;18.73;;;2.90;99.90;;;;;;5036439;28;20040;-61
2021/01/02 08:09:30;;;;;;;47.47;19.38;;;2.90;99.90;;;;;;5047575;28;20028;-61
2021/01/02 08:11:57;;;;;;;49.00;19.33;;;2.90;99.90;;;;;;5043848;28;20036;-61
2021/01/02 08:14:24;;;;;;;50.53;19.88;;;2.80;99.90;;;;;;5046745;28;20039;-59
2021/01/02 08:17:05;;;;;;;51.80;17.65;;;2.80;99.90;;;;;;5047254;28;20075;-59
2021/01/02 08:19:36;;;;;;;28.10;11.52;;;2.70;99.90;;;;;;5047826;28;20028;-58
2021/01/02 08:22:04;;;;;;;50.20;19.25;;;2.80;99.90;;;;;;5046763;28;20029;-61
2021/01/02 08:24:30;;;;;;;47.58;17.50;;;2.80;99.90;;;;;;5036016;28;20037;-61
2021/01/02 08:26:56;;;;;;;48.45;17.90;;;2.80;99.90;;;;;;5056682;28;20071;-61
2021/01/02 08:29:25;;;;;;;42.63;17.63;;;2.90;99.90;;;;;;5041534;28;20029;-61
2021/01/02 08:32:00;;;;;;;47.22;19.02;;;2.80;99.90;;;;;;5042413;28;20397;-61
2021/01/02 08:34:28;;;;;;;45.03;17.73;;;2.80;99.90;;;;;;5041380;28;20028;-59
2021/01/02 08:37:08;;;;;;;44.72;16.73;;;2.90;99.90;;;;;;5039862;28;20024;-61
2021/01/02 08:39:35;;;;;;;49.15;18.40;;;2.90;99.90;;;;;;5037848;28;20068;-61
2021/01/02 08:42:01;;;;;;;48.53;17.92;;;2.90;99.90;;;;;;5044978;28;20009;-61
2021/01/02 08:44:29;;;;;;;46.67;18.40;;;2.90;99.90;;;;;;5045997;28;20376;-61
2021/01/02 08:46:55;;;;;;;43.08;17.60;;;3.10;99.90;;;;;;5041069;28;20024;-61
2021/01/02 08:49:32;;;;;;;46.35;18.80;;;3.00;99.90;;;;;;5054729;28;20432;-61
2021/01/02 08:52:24;;;;;;;46.42;18.10;;;3.10;99.90;;;;;;5043415;28;20041;-61
2021/01/02 08:55:09;;;;;;;45.92;18.08;;;3.10;99.90;;;;;;5048602;28;20028;-61
2021/01/02 08:57:45;;;;;;;36.83;14.52;;;3.10;99.90;;;;;;5043357;28;20041;-60
2021/01/02 09:00:29;;;;;;;50.53;19.50;;;3.20;99.90;;;;;;5042912;28;20025;-61
2021/01/02 09:02:54;;;;;;;48.55;18.58;;;3.10;99.90;;;;;;5042286;28;20162;-61
2021/01/02 09:05:31;;;;;;;48.78;19.98;;;3.10;99.90;;;;;;5042163;28;20107;-61
2021/01/02 09:08:03;;;;;;;48.90;18.90;;;3.20;99.90;;;;;;5036243;28;20040;-60
2021/01/02 09:10:43;;;;;;;48.70;19.13;;;3.30;99.90;;;;;;5041097;28;20025;-61
2021/01/02 09:13:23;;;;;;;43.25;18.35;;;3.20;99.90;;;;;;5037763;28;20080;-61
2021/01/02 09:15:50;;;;;;;50.13;21.23;;;3.30;99.90;;;;;;5041461;28;20056;-61
2021/01/02 09:18:25;;;;;;;47.10;19.05;;;3.40;99.90;;;;;;5041881;28;20045;-60
2021/01/02 09:20:51;;;;;;;50.42;18.58;;;3.40;99.90;;;;;;5036774;28;20048;-60
2021/01/02 09:23:32;;;;;;;49.78;20.02;;;3.40;99.90;;;;;;5049438;28;20125;-59
2021/01/02 09:25:58;;;;;;;40.28;17.75;;;3.50;99.90;;;;;;5034120;28;20074;-60
2021/01/02 09:28:24;;;;;;;49.28;18.92;;;3.50;99.90;;;;;;5032907;28;20782;-60
2021/01/02 09:30:52;;;;;;;48.55;19.17;;;3.50;99.90;;;;;;5033393;28;20033;-58
2021/01/02 09:33:18;;;;;;;51.30;19.55;;;3.60;99.90;;;;;;5030879;28;20068;-58
2021/01/02 09:35:45;;;;;;;39.35;15.55;;;3.70;99.90;;;;;;5028719;28;20053;-60
2021/01/02 09:38:12;;;;;;;49.35;18.45;;;3.60;99.90;;;;;;5031260;28;20526;-60
2021/01/02 09:40:43;;;;;;;43.67;17.58;;;3.50;99.90;;;;;;5031565;28;20053;-58
2021/01/02 09:43:14;;;;;;;44.40;18.80;;;3.70;99.90;;;;;;5033216;28;20033;-58
2021/01/02 09:45:40;;;;;;;40.50;17.48;;;3.70;99.90;;;;;;5038692;28;20131;-58
2021/01/02 09:48:06;;;;;;;48.17;19.20;;;3.70;99.90;;;;;;5047802;28;20366;-60
2021/01/02 09:50:33;;;;;;;45.83;18.83;;;3.80;99.90;;;;;;5045838;28;20031;-61
2021/01/02 09:52:59;;;;;;;42.67;16.27;;;3.80;99.90;;;;;;5048044;28;20080;-61
2021/01/02 09:55:25;;;;;;;40.17;17.27;;;3.90;99.90;;;;;;5042580;28;20401;-61
2021/01/02 09:57:51;;;;;;;45.50;18.73;;;3.90;99.90;;;;;;5039956;28;20028;-58
2021/01/02 10:00:18;;;;;;;44.58;18.33;;;3.80;99.90;;;;;;5039262;28;20086;-58
2021/01/02 10:02:44;;;;;;;37.13;13.73;;;3.70;99.90;;;;;;5032356;28;20515;-58
2021/01/02 10:05:14;;;;;;;48.53;18.55;;;3.80;99.90;;;;;;5034740;28;20057;-61
2021/01/02 10:07:40;;;;;;;41.63;18.15;;;3.80;99.90;;;;;;5033806;28;20035;-61
2021/01/02 10:10:06;;;;;;;40.85;17.48;;;3.90;99.90;;;;;;5035024;28;20041;-58
2021/01/02 10:12:32;;;;;;;44.97;17.02;;;3.80;99.90;;;;;;5041836;28;20037;-61
2021/01/02 10:14:57;;;;;;;42.97;16.20;;;4.00;99.90;;;;;;5033852;28;20037;-59
2021/01/02 10:17:27;;;;;;;46.67;18.08;;;3.90;99.90;;;;;;5034499;28;20874;-61
2021/01/02 10:19:54;;;;;;;36.77;12.93;;;3.90;99.90;;;;;;5033338;28;20025;-59
2021/01/02 10:22:20;;;;;;;53.38;18.85;;;4.10;99.90;;;;;;5036416;28;20115;-59
2021/01/02 10:24:49;;;;;;;42.35;17.83;;;4.20;99.90;;;;;;5034705;28;20033;-59
2021/01/02 10:27:16;;;;;;;36.75;16.95;;;4.30;99.90;;;;;;5040939;28;20029;-59
2021/01/02 10:29:44;;;;;;;48.20;17.88;;;4.10;99.90;;;;;;5043234;28;20032;-61
2021/01/02 10:32:10;;;;;;;47.53;18.48;;;4.10;99.90;;;;;;5031833;28;20040;-59
2021/01/02 10:34:36;;;;;;;29.60;13.52;;;4.20;99.90;;;;;;5048010;28;20075;-59
2021/01/02 10:37:02;;;;;;;44.67;16.75;;;4.20;99.90;;;;;;5042104;28;20059;-61
2021/01/02 10:39:27;;;;;;;49.85;20.77;;;4.20;99.90;;;;;;5043067;28;20040;-59
2021/01/02 10:41:53;;;;;;;44.13;16.77;;;4.20;99.90;;;;;;5042794;28;20024;-59
2021/01/02 10:44:20;;;;;;;39.75;16.15;;;4.30;99.90;;;;;;5044800;28;20510;-61
2021/01/02 10:46:49;;;;;;;38.83;13.70;;;4.40;99.90;;;;;;5036231;28;20107;-60
2021/01/02 10:49:17;;;;;;;49.10;18.05;;;4.50;99.90;;;;;;5032732;28;20083;-59
2021/01/02 10:51:42;;;;;;;42.05;17.23;;;4.50;99.90;;;;;;5027419;28;20111;-59
2021/01/02 10:54:09;;;;;;;42.05;16.73;;;4.50;99.90;;;;;;5039369;28;20170;-59
2021/01/02 10:56:36;;;;;;;39.45;16.23;;;4.50;99.90;;;;;;5033665;28;20037;-59
2021/01/02 10:59:01;;;;;;;41.47;17.05;;;4.70;99.90;;;;;;5036787;28;20068;-59
2021/01/02 11:01:27;;;;;;;45.03;18.13;;;4.50;99.90;;;;;;5037420;28;20111;-59
2021/01/02 11:03:53;;;;;;;28.92;11.85;;;4.60;99.90;;;;;;5040253;28;20535;-61
2021/01/02 11:06:19;;;;;;;36.97;13.63;;;4.50;99.90;;;;;;5040339;28;20033;-61
2021/01/02 11:08:46;;;;;;;39.50;15.05;;;4.50;99.90;;;;;;5043805;28;20044;-60
2021/01/02 11:11:20;;;;;;;41.58;15.90;;;4.50;99.90;;;;;;5042375;28;20024;-60
2021/01/02 11:13:46;;;;;;;38.50;14.15;;;4.70;99.90;;;;;;5040530;28;20120;-59
2021/01/02 11:16:11;;;;;;;43.85;17.02;;;4.60;99.90;;;;;;5041837;28;20484;-59
2021/01/02 11:18:37;;;;;;;42.28;17.38;;;4.70;99.90;;;;;;5043504;28;20028;-61
2021/01/02 11:21:08;;;;;;;41.72;18.73;;;4.60;99.90;;;;;;5042800;28;20021;-59
2021/01/02 11:23:34;;;;;;;41.42;17.15;;;4.80;99.90;;;;;;5040157;28;20065;-59
2021/01/02 11:25:59;;;;;;;42.05;17.15;;;5.00;99.90;;;;;;5040601;28;20102;-59
2021/01/02 11:28:25;;;;;;;39.88;17.15;;;5.10;99.90;;;;;;5041320;28;20032;-59
2021/01/02 11:30:50;;;;;;;42.70;15.38;;;5.30;99.90;;;;;;5038175;28;20515;-59
2021/01/02 11:33:16;;;;;;;38.53;16.52;;;5.30;99.90;;;;;;5041265;28;20098;-59
2021/01/02 11:35:41;;;;;;;34.22;14.20;;;5.40;99.90;;;;;;5041444;28;20050;-59
2021/01/02 11:38:07;;;;;;;22.42;9.48;;;5.20;99.90;;;;;;5039806;28;20024;-61
2021/01/02 11:40:33;;;;;;;43.53;17.55;;;5.30;99.90;;;;;;5041814;28;20036;-59
2021/01/02 11:42:58;;;;;;;41.15;16.48;;;5.00;99.90;;;;;;5041131;28;20029;-59
2021/01/02 11:45:24;;;;;;;36.90;17.02;;;5.20;99.90;;;;;;5043346;28;20483;-59
2021/01/02 11:47:51;;;;;;;42.92;17.35;;;5.20;99.90;;;;;;5048071;28;20032;-59
2021/01/02 11:50:17;;;;;;;39.60;17.10;;;5.20;99.90;;;;;;5040556;28;20053;-59
2021/01/02 11:52:43;;;;;;;38.20;14.90;;;5.30;99.90;;;;;;5047007;28;20063;-61
2021/01/02 11:55:09;;;;;;;41.60;16.17;;;5.30;99.90;;;;;;5044326;28;20033;-59
2021/01/02 11:57:34;;;;;;;38.28;15.75;;;5.20;99.90;;;;;;5027253;28;20030;-59
2021/01/02 12:00:02;;;;;;;46.33;17.10;;;5.30;99.90;;;;;;5037417;28;20013;-57
2021/01/02 12:02:27;;;;;;;40.97;16.10;;;5.30;99.90;;;;;;5036092;28;20650;-59
2021/01/02 12:04:54;;;;;;;37.00;15.75;;;5.10;99.90;;;;;;5045824;28;20029;-59
2021/01/02 12:07:19;;;;;;;39.15;16.38;;;5.20;99.90;;;;;;5040299;28;20030;-59
2021/01/02 12:09:45;;;;;;;37.72;15.57;;;5.30;99.90;;;;;;5039930;28;20535;-59
2021/01/02 12:12:11;;;;;;;38.20;16.02;;;5.50;99.90;;;;;;5034679;28;20029;-59
2021/01/02 12:14:36;;;;;;;38.55;16.23;;;5.40;99.90;;;;;;5043892;28;20400;-59
2021/01/02 12:17:08;;;;;;;39.08;15.93;;;5.30;99.90;;;;;;5043006;28;20026;-61
2021/01/02 12:19:34;;;;;;;39.83;15.18;;;5.30;99.90;;;;;;5043052;28;20107;-59
2021/01/02 12:22:06;;;;;;;38.85;14.35;;;5.40;99.90;;;;;;5045870;28;20142;-59
2021/01/02 12:24:32;;;;;;;40.05;15.95;;;5.50;99.90;;;;;;5045316;28;20043;-59
2021/01/02 12:27:04;;;;;;;38.80;15.45;;;5.60;99.90;;;;;;5045397;28;20029;-59
2021/01/02 12:29:31;;;;;;;39.10;15.93;;;5.50;99.90;;;;;;5040836;28;20480;-60
2021/01/02 12:31:59;;;;;;;34.10;14.52;;;5.40;99.90;;;;;;5037316;28;20033;-59
2021/01/02 12:34:30;;;;;;;37.42;15.30;;;5.20;99.90;;;;;;5046513;28;20052;-58
2021/01/02 12:36:56;;;;;;;;;;;5.30;99.90;;;;;;5049425;28;20021;-59
2021/01/02 12:39:28;;;;;;;37.40;15.05;;;5.50;99.90;;;;;;5034128;28;19913;-59
2021/01/02 12:41:54;;;;;;;32.80;13.88;;;5.70;99.90;;;;;;5036001;28;20075;-59
2021/01/02 12:44:21;;;;;;;26.63;10.63;;;5.50;99.90;;;;;;5031729;28;20109;-59
2021/01/02 12:46:59;;;;;;;32.65;14.02;;;5.60;99.90;;;;;;5031909;28;20056;-59
2021/01/02 12:49:28;;;;;;;35.95;14.38;;;5.60;99.90;;;;;;5047030;28;20477;-59
2021/01/02 12:51:58;;;;;;;40.10;14.00;;;5.70;99.90;;;;;;5044433;28;20040;-59
2021/01/02 12:54:24;;;;;;;37.88;14.63;;;5.80;99.90;;;;;;5041487;28;20060;-59